createdAt,value
2022-10-05T00:02:18.323Z,9.23
2022-10-05T00:04:46.442Z,9.05
2022-10-05T00:07:15.265Z,9.01
2022-10-05T00:09:43.740Z,8.92
2022-10-05T00:12:15.867Z,9.02
2022-10-05T00:14:44.860Z,9.09
2022-10-05T00:17:17.639Z,9.41
2022-10-05T00:19:46.486Z,9.47
2022-10-05T00:22:18.890Z,9.06
2022-10-05T00:24:47.575Z,8.99
2022-10-05T00:27:17.807Z,9.01
2022-10-05T00:29:46.254Z,8.74
2022-10-05T00:32:14.377Z,8.57
2022-10-05T00:34:43.864Z,8.50
2022-10-05T00:37:12.522Z,8.37
2022-10-05T00:39:41.468Z,8.44
2022-10-05T00:42:22.367Z,8.38
2022-10-05T00:44:54.018Z,8.49
2022-10-05T00:47:28.479Z,8.41
2022-10-05T00:50:11.324Z,8.69
2022-10-05T00:52:45.786Z,8.94
2022-10-05T00:55:16.682Z,8.87
2022-10-05T00:57:49.564Z,8.89
2022-10-05T01:00:19.736Z,8.85
2022-10-05T01:02:52.966Z,8.80
2022-10-05T01:05:28.703Z,8.93
2022-10-05T01:08:04.316Z,8.77
2022-10-05T01:10:36.498Z,8.61
2022-10-05T01:13:09.679Z,8.88
2022-10-05T01:15:40.585Z,8.58
2022-10-05T01:18:13.205Z,8.45
2022-10-05T01:20:45.399Z,8.25
2022-10-05T01:23:31.275Z,8.10
2022-10-05T01:26:08.234Z,7.89
2022-10-05T01:28:39.239Z,8.13
2022-10-05T01:31:10.485Z,8.09
2022-10-05T01:33:43.098Z,7.89
2022-10-05T01:36:16.346Z,7.92
2022-10-05T01:38:52.824Z,8.00
2022-10-05T01:41:28.046Z,7.94
2022-10-05T01:44:01.260Z,7.77
2022-10-05T01:46:33.656Z,7.66
2022-10-05T01:49:09.118Z,7.78
2022-10-05T01:51:41.583Z,8.04
2022-10-05T01:54:16.599Z,8.03
2022-10-05T01:56:48.156Z,8.15
2022-10-05T01:59:21.731Z,8.24
2022-10-05T02:01:53.792Z,8.12
2022-10-05T02:04:56.417Z,7.70
2022-10-05T02:07:17.820Z,7.91
2022-10-05T02:09:47.755Z,7.69
2022-10-05T02:12:18.989Z,8.18
2022-10-05T02:14:51.834Z,7.91
2022-10-05T02:17:22.941Z,8.20
2022-10-05T02:19:53.277Z,7.86
2022-10-05T02:22:27.562Z,7.63
2022-10-05T02:24:57.931Z,7.64
2022-10-05T02:27:30.830Z,8.01
2022-10-05T02:30:02.355Z,7.57
2022-10-05T02:32:37.472Z,8.02
2022-10-05T02:35:13.360Z,7.73
2022-10-05T02:37:44.518Z,7.35
2022-10-05T02:40:18.552Z,7.34
2022-10-05T02:42:54.579Z,7.24
2022-10-05T02:45:31.144Z,7.34
2022-10-05T02:48:05.867Z,7.26
2022-10-05T02:50:35.895Z,7.34
2022-10-05T02:53:09.412Z,7.58
2022-10-05T02:55:38.997Z,7.74
2022-10-05T02:58:08.828Z,8.02
2022-10-05T03:00:43.118Z,8.13
2022-10-05T03:03:14.200Z,8.05
2022-10-05T03:05:45.819Z,7.52
2022-10-05T03:08:18.726Z,7.07
2022-10-05T03:10:50.767Z,7.31
2022-10-05T03:13:24.914Z,7.20
2022-10-05T03:16:02.960Z,7.02
2022-10-05T03:18:42.869Z,6.94
2022-10-05T03:21:19.019Z,7.00
2022-10-05T03:23:54.226Z,6.99
2022-10-05T03:26:30.756Z,6.93
2022-10-05T03:29:01.050Z,6.92
2022-10-05T03:31:33.844Z,7.04
2022-10-05T03:34:07.244Z,6.84
2022-10-05T03:36:40.248Z,6.94
2022-10-05T03:39:11.497Z,6.83
2022-10-05T03:41:46.739Z,7.12
2022-10-05T03:44:23.731Z,7.01
2022-10-05T03:47:00.670Z,6.74
2022-10-05T03:49:34.123Z,6.95
2022-10-05T03:52:05.004Z,6.85
2022-10-05T03:54:36.060Z,6.79
2022-10-05T03:57:09.051Z,6.73
2022-10-05T03:59:40.264Z,6.73
2022-10-05T04:02:13.786Z,6.74
2022-10-05T04:04:47.326Z,6.71
2022-10-05T04:07:23.325Z,6.63
2022-10-05T04:09:53.660Z,6.65
2022-10-05T04:12:25.034Z,6.65
2022-10-05T04:14:55.561Z,6.82
2022-10-05T04:17:32.088Z,6.94
2022-10-05T04:20:04.008Z,7.00
2022-10-05T04:22:36.109Z,6.79
2022-10-05T04:25:08.956Z,6.97
2022-10-05T04:27:39.836Z,7.04
2022-10-05T04:30:12.564Z,7.07
2022-10-05T04:32:44.543Z,6.64
2022-10-05T04:35:39.974Z,6.36
2022-10-05T04:38:17.862Z,6.37
2022-10-05T04:40:53.269Z,6.25
2022-10-05T04:43:28.318Z,6.35
2022-10-05T04:46:04.671Z,6.31
2022-10-05T04:48:50.969Z,6.14
2022-10-05T04:51:28.557Z,6.17
2022-10-05T04:53:59.727Z,6.23
2022-10-05T04:56:32.039Z,6.35
2022-10-05T04:59:15.355Z,6.16
2022-10-05T05:01:51.138Z,6.25
2022-10-05T05:04:26.658Z,6.28
2022-10-05T05:07:02.450Z,6.52
2022-10-05T05:09:55.243Z,6.58
2022-10-05T05:12:29.360Z,6.31
2022-10-05T05:15:06.683Z,6.39
2022-10-05T05:17:41.984Z,6.35
2022-10-05T05:20:18.600Z,6.18
2022-10-05T05:22:51.791Z,6.19
2022-10-05T05:25:24.001Z,6.32
2022-10-05T05:27:55.426Z,6.25
2022-10-05T05:30:33.509Z,6.18
2022-10-05T05:33:11.170Z,5.95
2022-10-05T05:35:48.953Z,6.18
2022-10-05T05:38:26.417Z,6.14
2022-10-05T05:41:00.360Z,6.38
2022-10-05T05:43:30.520Z,6.63
2022-10-05T05:46:00.904Z,7.19
2022-10-05T05:48:32.745Z,6.46
2022-10-05T05:51:02.761Z,7.07
2022-10-05T05:53:34.924Z,7.01
2022-10-05T05:56:09.009Z,7.02
2022-10-05T05:58:41.002Z,6.67
2022-10-05T06:01:30.584Z,7.03
2022-10-05T06:04:00.820Z,6.87
2022-10-05T06:06:32.187Z,7.57
2022-10-05T06:09:03.749Z,7.88
2022-10-05T06:11:41.242Z,7.28
2022-10-05T06:14:14.585Z,8.00
2022-10-05T06:16:46.846Z,6.82
2022-10-05T06:19:17.502Z,7.43
2022-10-05T06:21:51.886Z,6.65
2022-10-05T06:24:24.785Z,7.11
2022-10-05T06:27:03.367Z,6.86
2022-10-05T06:29:40.834Z,6.90
2022-10-05T06:32:14.870Z,7.05
2022-10-05T06:34:56.892Z,7.43
2022-10-05T06:37:33.999Z,7.89
2022-10-05T06:40:09.246Z,7.96
2022-10-05T06:42:43.537Z,7.89
2022-10-05T06:45:26.210Z,8.37
2022-10-05T06:48:17.770Z,8.00
2022-10-05T06:51:07.239Z,8.63
2022-10-05T06:54:04.103Z,8.73
2022-10-05T06:56:38.292Z,9.35
2022-10-05T06:59:10.740Z,8.78
2022-10-05T07:01:49.158Z,8.92
2022-10-05T07:04:25.015Z,8.60
2022-10-05T07:06:55.847Z,9.12
2022-10-05T07:09:36.422Z,9.45
2022-10-05T07:12:14.804Z,9.38
2022-10-05T07:15:02.640Z,9.80
2022-10-05T07:17:42.475Z,9.94
2022-10-05T07:20:15.680Z,9.01
2022-10-05T07:23:02.748Z,9.21
2022-10-05T07:25:36.968Z,9.11
2022-10-05T07:28:08.593Z,8.97
2022-10-05T07:30:41.296Z,9.46
2022-10-05T07:33:13.953Z,9.16
2022-10-05T07:36:06.275Z,9.24
2022-10-05T07:38:39.161Z,9.91
2022-10-05T07:41:08.707Z,9.92
2022-10-05T07:44:01.493Z,10.28
2022-10-05T07:46:38.476Z,9.64
2022-10-05T07:49:10.508Z,10.17
2022-10-05T07:51:40.987Z,10.26
2022-10-05T07:54:20.039Z,9.87
2022-10-05T07:56:55.885Z,9.99
2022-10-05T07:59:31.261Z,10.22
2022-10-05T08:02:05.097Z,10.44
2022-10-05T08:04:41.808Z,10.70
2022-10-05T08:07:12.321Z,10.43
2022-10-05T08:09:43.061Z,10.57
2022-10-05T08:12:17.917Z,10.66
2022-10-05T08:14:52.669Z,11.24
2022-10-05T08:17:25.681Z,11.63
2022-10-05T08:19:57.415Z,12.07
2022-10-05T08:22:30.233Z,11.98
2022-10-05T08:25:02.909Z,11.80
2022-10-05T08:27:35.369Z,12.18
2022-10-05T08:30:06.614Z,12.12
2022-10-05T08:32:37.789Z,12.22
2022-10-05T08:35:18.885Z,12.91
2022-10-05T08:37:47.086Z,13.04
2022-10-05T08:40:25.587Z,13.24
2022-10-05T08:43:08.112Z,13.51
2022-10-05T08:45:49.075Z,13.69
2022-10-05T08:48:44.522Z,13.75
2022-10-05T08:51:30.051Z,14.35
2022-10-05T08:54:14.084Z,14.46
2022-10-05T08:56:43.654Z,14.08
2022-10-05T08:59:19.599Z,14.29
2022-10-05T09:02:03.627Z,14.52
2022-10-05T09:04:43.442Z,14.24
2022-10-05T09:07:29.320Z,14.97
2022-10-05T09:10:20.703Z,15.39
2022-10-05T09:13:04.003Z,15.21
2022-10-05T09:15:43.517Z,15.19
2022-10-05T09:18:23.984Z,15.11
2022-10-05T09:20:52.930Z,15.86
2022-10-05T09:23:28.923Z,15.53
2022-10-05T09:25:58.718Z,16.06
2022-10-05T09:28:32.191Z,16.15
2022-10-05T09:31:12.601Z,16.22
2022-10-05T09:33:58.645Z,16.32
2022-10-05T09:36:36.296Z,15.99
2022-10-05T09:39:34.502Z,16.19
2022-10-05T09:42:17.381Z,16.46
2022-10-05T09:45:00.911Z,16.64
2022-10-05T09:47:41.350Z,16.57
2022-10-05T09:50:40.763Z,16.93
2022-10-05T09:53:23.076Z,17.09
2022-10-05T09:56:01.224Z,16.83
2022-10-05T09:58:49.745Z,17.43
2022-10-05T10:01:38.784Z,17.30
2022-10-05T10:04:12.769Z,17.05
2022-10-05T10:07:04.996Z,17.56
2022-10-05T10:09:40.856Z,17.09
2022-10-05T10:12:17.954Z,17.35
2022-10-05T10:15:06.963Z,17.69
2022-10-05T10:17:48.949Z,17.76
2022-10-05T10:20:27.003Z,17.64
2022-10-05T10:23:08.517Z,17.94
2022-10-05T10:25:51.732Z,17.55
2022-10-05T10:28:32.074Z,18.13
2022-10-05T10:31:18.126Z,17.62
2022-10-05T10:34:06.984Z,17.93
2022-10-05T10:36:47.398Z,17.74
2022-10-05T10:39:22.379Z,18.04
2022-10-05T10:42:10.939Z,18.31
2022-10-05T10:44:53.815Z,18.34
2022-10-05T10:47:52.125Z,19.15
2022-10-05T10:50:33.121Z,18.86
2022-10-05T10:53:13.696Z,18.92
2022-10-05T10:55:48.345Z,18.63
2022-10-05T10:58:35.809Z,19.03
2022-10-05T11:01:11.061Z,18.88
2022-10-05T11:03:56.755Z,18.78
2022-10-05T11:06:45.934Z,19.02
2022-10-05T11:09:25.794Z,19.15
2022-10-05T11:12:08.651Z,19.09
2022-10-05T11:14:51.679Z,19.30
2022-10-05T11:17:33.299Z,19.28
2022-10-05T11:20:16.370Z,19.29
2022-10-05T11:23:02.321Z,19.33
2022-10-05T11:25:44.328Z,19.38
2022-10-05T11:28:38.786Z,19.14
2022-10-05T11:31:24.783Z,19.57
2022-10-05T11:34:07.902Z,19.53
2022-10-05T11:36:46.446Z,19.43
2022-10-05T11:39:30.232Z,19.66
2022-10-05T11:42:27.238Z,19.84
2022-10-05T11:45:15.027Z,19.46
2022-10-05T11:47:49.637Z,19.88
2022-10-05T11:50:20.064Z,20.16
2022-10-05T11:52:51.488Z,20.23
2022-10-05T11:55:24.919Z,19.97
2022-10-05T11:57:55.168Z,20.06
2022-10-05T12:00:24.143Z,20.44
2022-10-05T12:03:12.388Z,20.35
2022-10-05T12:05:49.700Z,20.25
2022-10-05T12:08:29.094Z,20.44
2022-10-05T12:11:03.409Z,20.72
2022-10-05T12:13:37.642Z,20.75
2022-10-05T12:16:08.730Z,20.58
2022-10-05T12:18:47.443Z,20.97
2022-10-05T12:21:18.841Z,20.93
2022-10-05T12:23:50.864Z,20.57
2022-10-05T12:26:24.360Z,21.19
2022-10-05T12:28:54.442Z,21.51
2022-10-05T12:31:29.638Z,21.19
2022-10-05T12:34:03.671Z,21.06
2022-10-05T12:36:59.219Z,21.37
2022-10-05T12:39:27.167Z,22.41
2022-10-05T12:42:02.887Z,21.66
2022-10-05T12:44:43.664Z,21.45
2022-10-05T12:47:17.886Z,21.39
2022-10-05T12:50:06.950Z,21.45
2022-10-05T12:52:44.255Z,21.80
2022-10-05T12:55:16.383Z,21.80
2022-10-05T12:57:50.093Z,22.53
2022-10-05T13:00:22.878Z,23.07
2022-10-05T13:02:51.920Z,22.62
2022-10-05T13:05:24.551Z,22.15
2022-10-05T13:08:01.360Z,22.66
2022-10-05T13:10:35.007Z,21.61
2022-10-05T13:13:08.867Z,21.83
2022-10-05T13:15:42.067Z,22.53
2022-10-05T13:18:14.826Z,22.80
2022-10-05T13:20:45.298Z,22.84
2022-10-05T13:23:15.568Z,23.38
2022-10-05T13:28:19.551Z,22.02
2022-10-05T13:30:52.758Z,22.28
2022-10-05T13:33:25.950Z,22.75
2022-10-05T13:35:59.846Z,22.14
2022-10-05T13:38:34.448Z,22.59
2022-10-05T13:41:08.086Z,22.02
2022-10-05T13:43:43.937Z,21.91
2022-10-05T13:46:15.316Z,22.64
2022-10-05T13:48:49.731Z,22.30
2022-10-05T13:51:20.085Z,22.18
2022-10-05T13:53:49.628Z,21.83
2022-10-05T13:56:20.723Z,21.87
2022-10-05T13:58:52.732Z,21.99
2022-10-05T14:01:28.112Z,22.66
2022-10-05T14:04:15.945Z,22.65
2022-10-05T14:06:44.288Z,22.93
2022-10-05T14:09:14.729Z,22.86
2022-10-05T14:11:48.857Z,22.90
2022-10-05T14:14:25.808Z,22.81
2022-10-05T14:16:54.835Z,22.72
2022-10-05T14:19:26.785Z,22.52
2022-10-05T14:21:55.939Z,22.92
2022-10-05T14:24:43.705Z,23.10
2022-10-05T14:27:22.523Z,23.37
2022-10-05T14:29:56.850Z,23.59
2022-10-05T14:32:25.323Z,23.09
2022-10-05T14:34:59.971Z,23.56
2022-10-05T14:37:33.471Z,23.61
2022-10-05T14:40:03.968Z,22.93
2022-10-05T14:42:46.250Z,23.14
2022-10-05T14:45:18.637Z,22.58
2022-10-05T14:47:48.557Z,22.24
2022-10-05T14:50:17.858Z,22.48
2022-10-05T14:52:51.944Z,23.18
2022-10-05T14:55:30.360Z,22.80
2022-10-05T14:58:03.882Z,22.50
2022-10-05T15:00:36.290Z,22.78
2022-10-05T15:03:18.583Z,22.55
2022-10-05T15:05:49.747Z,23.09
2022-10-05T15:08:28.465Z,22.83
2022-10-05T15:11:01.407Z,22.69
2022-10-05T15:13:32.102Z,22.92
2022-10-05T15:16:05.713Z,22.91
2022-10-05T15:18:39.333Z,22.82
2022-10-05T15:21:21.535Z,22.75
2022-10-05T15:23:52.901Z,22.49
2022-10-05T15:26:28.061Z,22.46
2022-10-05T15:28:59.786Z,22.54
2022-10-05T15:31:32.953Z,22.97
2022-10-05T15:34:02.343Z,22.55
2022-10-05T15:36:36.270Z,22.31
2022-10-05T15:39:11.168Z,22.33
2022-10-05T15:41:52.858Z,21.62
2022-10-05T15:44:27.716Z,22.38
2022-10-05T15:46:59.675Z,21.66
2022-10-05T15:49:33.064Z,22.02
2022-10-05T15:52:04.539Z,21.99
2022-10-05T15:54:57.236Z,21.99
2022-10-05T15:57:26.498Z,21.95
2022-10-05T15:59:59.077Z,21.73
2022-10-05T16:02:31.241Z,21.70
2022-10-05T16:05:04.911Z,21.72
2022-10-05T16:07:53.150Z,21.53
2022-10-05T16:10:23.311Z,21.20
2022-10-05T16:12:58.698Z,21.18
2022-10-05T16:15:33.240Z,21.37
2022-10-05T16:18:09.897Z,21.35
2022-10-05T16:20:42.300Z,20.92
2022-10-05T16:23:13.920Z,20.69
2022-10-05T16:25:48.055Z,20.71
2022-10-05T16:28:23.378Z,20.63
2022-10-05T16:30:58.726Z,20.45
2022-10-05T16:33:32.710Z,20.74
2022-10-05T16:36:04.711Z,20.68
2022-10-05T16:38:38.604Z,20.09
2022-10-05T16:41:13.659Z,20.09
2022-10-05T16:43:49.377Z,20.09
2022-10-05T16:46:27.557Z,19.71
2022-10-05T16:49:02.636Z,19.06
2022-10-05T16:51:34.803Z,18.74
2022-10-05T16:54:11.525Z,18.42
2022-10-05T16:56:42.093Z,18.79
2022-10-05T16:59:32.219Z,18.94
2022-10-05T17:02:03.884Z,18.45
2022-10-05T17:04:39.960Z,18.72
2022-10-05T17:07:17.035Z,18.43
2022-10-05T17:10:03.175Z,18.48
2022-10-05T17:12:40.282Z,18.27
2022-10-05T17:15:15.808Z,17.95
2022-10-05T17:17:58.694Z,17.64
2022-10-05T17:20:41.635Z,18.06
2022-10-05T17:23:19.371Z,17.93
2022-10-05T17:25:53.639Z,17.98
2022-10-05T17:28:24.105Z,17.60
2022-10-05T17:31:08.003Z,17.41
2022-10-05T17:33:56.273Z,17.40
2022-10-05T17:36:37.456Z,17.49
2022-10-05T17:39:14.404Z,17.38
2022-10-05T17:41:42.883Z,17.00
2022-10-05T17:44:19.313Z,16.96
2022-10-05T17:46:48.530Z,17.01
2022-10-05T17:49:23.631Z,16.82
2022-10-05T17:52:17.388Z,16.73
2022-10-05T17:55:27.473Z,17.01
2022-10-05T17:57:58.562Z,16.91
2022-10-05T18:00:34.869Z,16.94
2022-10-05T18:03:28.847Z,16.82
2022-10-05T18:06:11.684Z,16.93
2022-10-05T18:08:41.889Z,16.84
2022-10-05T18:11:17.073Z,16.75
2022-10-05T18:13:50.005Z,17.07
2022-10-05T18:16:32.979Z,17.15
2022-10-05T18:19:01.050Z,17.06
2022-10-05T18:21:39.957Z,17.11
2022-10-05T18:24:28.978Z,16.70
2022-10-05T18:27:04.853Z,16.99
2022-10-05T18:29:59.969Z,16.64
2022-10-05T18:32:33.040Z,16.54
2022-10-05T18:35:04.992Z,16.57
2022-10-05T18:37:42.071Z,16.61
2022-10-05T18:40:21.273Z,16.50
2022-10-05T18:42:57.107Z,16.20
2022-10-05T18:45:27.042Z,16.14
2022-10-05T18:48:04.137Z,16.15
2022-10-05T18:50:34.744Z,15.98
2022-10-05T18:53:09.152Z,15.77
2022-10-05T18:55:40.510Z,15.63
2022-10-05T18:58:17.940Z,15.59
2022-10-05T19:01:03.902Z,15.91
2022-10-05T19:03:36.329Z,15.81
2022-10-05T19:06:13.038Z,15.69
2022-10-05T19:08:45.820Z,16.06
2022-10-05T19:11:19.179Z,16.12
2022-10-05T19:13:52.139Z,16.38
2022-10-05T19:16:35.291Z,16.33
2022-10-05T19:19:11.050Z,16.18
2022-10-05T19:21:45.050Z,16.32
2022-10-05T19:24:32.286Z,16.35
2022-10-05T19:27:02.476Z,16.20
2022-10-05T19:29:37.624Z,16.37
2022-10-05T19:32:08.532Z,16.38
2022-10-05T19:34:45.281Z,16.40
2022-10-05T19:37:21.033Z,16.36
2022-10-05T19:39:53.544Z,16.26
2022-10-05T19:42:27.179Z,16.28
2022-10-05T19:45:02.613Z,16.05
2022-10-05T19:47:43.469Z,15.94
2022-10-05T19:50:22.017Z,15.74
2022-10-05T19:52:51.972Z,15.53
2022-10-05T19:55:26.240Z,15.47
2022-10-05T19:57:55.465Z,15.72
2022-10-05T20:00:27.946Z,15.28
2022-10-05T20:03:09.218Z,15.24
2022-10-05T20:05:39.759Z,15.17
2022-10-05T20:08:08.386Z,15.32
2022-10-05T20:10:36.458Z,15.62
2022-10-05T20:13:08.570Z,15.51
2022-10-05T20:15:55.274Z,15.60
2022-10-05T20:18:54.104Z,15.57
2022-10-05T20:21:43.052Z,15.41
2022-10-05T20:24:12.039Z,15.65
2022-10-05T20:27:04.837Z,15.35
2022-10-05T20:29:35.361Z,15.17
2022-10-05T20:32:08.633Z,15.14
2022-10-05T20:34:37.770Z,14.55
2022-10-05T20:37:06.477Z,14.60
2022-10-05T20:39:34.466Z,14.47
2022-10-05T20:42:05.149Z,14.44
2022-10-05T20:44:33.522Z,14.15
2022-10-05T20:47:01.628Z,13.94
2022-10-05T20:49:36.538Z,13.87
2022-10-05T20:52:05.673Z,14.11
2022-10-05T20:54:33.846Z,13.80
2022-10-05T20:57:06.490Z,13.89
2022-10-05T20:59:34.903Z,13.67
2022-10-05T21:02:03.799Z,13.73
2022-10-05T21:04:40.277Z,13.40
2022-10-05T21:07:10.715Z,13.27
2022-10-05T21:09:42.399Z,13.85
2022-10-05T21:12:11.058Z,13.75
2022-10-05T21:14:40.469Z,13.60
2022-10-05T21:17:08.479Z,13.68
2022-10-05T21:19:40.165Z,13.22
2022-10-05T21:22:08.630Z,12.99
2022-10-05T21:24:38.615Z,13.12
2022-10-05T21:27:06.798Z,13.20
2022-10-05T21:29:35.717Z,13.43
2022-10-05T21:32:03.851Z,13.55
2022-10-05T21:34:31.852Z,13.46
2022-10-05T21:36:59.844Z,13.83
2022-10-05T21:39:27.826Z,14.02
2022-10-05T21:41:59.511Z,14.14
2022-10-05T21:44:27.504Z,14.34
2022-10-05T21:46:56.209Z,14.64
2022-10-05T21:49:24.593Z,14.83
2022-10-05T21:51:52.943Z,14.60
2022-10-05T21:54:22.262Z,14.56
2022-10-05T21:56:51.778Z,14.50
2022-10-05T22:02:38.127Z,14.97
2022-10-05T22:05:08.707Z,14.75
2022-10-05T22:07:36.716Z,14.52
2022-10-05T22:10:05.683Z,14.62
2022-10-05T22:12:33.768Z,14.53
2022-10-05T22:15:05.224Z,14.47
2022-10-05T22:17:33.214Z,14.74
2022-10-05T22:20:02.639Z,14.71
2022-10-05T22:22:30.751Z,14.71
2022-10-05T22:24:58.759Z,14.52
2022-10-05T22:27:28.892Z,14.58
2022-10-05T22:29:58.830Z,13.18
2022-10-05T22:32:26.899Z,13.44
2022-10-05T22:34:55.272Z,13.88
2022-10-05T22:37:24.609Z,13.98
2022-10-05T22:39:55.061Z,13.92
2022-10-05T22:42:23.044Z,13.86
2022-10-05T22:44:51.010Z,13.98
2022-10-05T22:47:19.007Z,13.68
2022-10-05T22:49:46.985Z,13.34
2022-10-05T22:52:14.963Z,13.22
2022-10-05T22:54:44.314Z,12.89
2022-10-05T22:57:12.244Z,12.61
2022-10-05T22:59:40.284Z,13.08
2022-10-05T23:02:08.286Z,13.01
2022-10-05T23:04:36.348Z,12.47
2022-10-05T23:07:04.416Z,12.71
2022-10-05T23:09:32.383Z,12.39
2022-10-05T23:12:03.855Z,12.42
2022-10-05T23:14:33.150Z,12.05
2022-10-05T23:17:01.165Z,11.73
2022-10-05T23:19:29.151Z,12.10
2022-10-05T23:21:57.147Z,11.95
2022-10-05T23:24:25.100Z,12.02
2022-10-05T23:26:53.083Z,11.98
2022-10-05T23:29:22.416Z,11.86
2022-10-05T23:31:50.388Z,11.75
2022-10-05T23:34:18.387Z,12.03
2022-10-05T23:36:46.330Z,12.13
2022-10-05T23:39:14.338Z,11.81
2022-10-05T23:41:44.280Z,11.69
2022-10-05T23:44:12.443Z,11.60
2022-10-05T23:46:41.970Z,11.82
2022-10-05T23:49:10.312Z,12.14
2022-10-05T23:51:40.638Z,12.44
2022-10-05T23:54:08.622Z,11.76
2022-10-05T23:56:36.594Z,11.50
2022-10-05T23:59:04.546Z,11.64
